Time;durP1;ratioP1;P1;durP2;ratioP2;P2;SDS_P1;SDS_P2;PMS_P1;PMS_P2;Temp;Humidity;BMP_temperature;BMP_pressure;BME280_temperature;BME280_humidity;BME280_pressure;Samples;Min_cycle;Max_cycle;Signal;HPM_P1;HPM_P2
2021/03/27 00:01:31;;;;;;;11.00;7.23;;;;;;;10.82;52.71;100369.84;5015564;28;20326;-65
2021/03/27 00:04:03;;;;;;;11.07;8.00;;;;;;;10.78;52.69;100366.53;5015910;28;20549;-65
2021/03/27 00:06:37;;;;;;;9.70;7.77;;;;;;;10.74;52.83;100371.22;5018528;28;20517;-65
2021/03/27 00:09:12;;;;;;;10.73;7.70;;;;;;;10.70;53.22;100361.75;5016818;28;20198;-65
2021/03/27 00:11:44;;;;;;;10.10;7.50;;;;;;;10.66;53.18;100357.56;5012935;28;20289;-65
2021/03/27 00:14:13;;;;;;;9.90;7.43;;;;;;;10.63;53.81;100359.59;5014738;28;20234;-65
2021/03/27 00:16:51;;;;;;;9.27;7.50;;;;;;;10.59;53.65;100356.28;5017539;28;20213;-65
2021/03/27 00:19:24;;;;;;;10.77;7.73;;;;;;;10.55;53.52;100357.47;5018690;28;20230;-65
2021/03/27 00:24:30;;;;;;;12.00;7.50;;;;;;;10.50;54.17;100348.06;5063833;22;20714;-65
2021/03/27 00:27:02;;;;;;;12.87;8.27;;;;;;;10.48;54.32;100345.50;5032801;28;20213;-66
2021/03/27 00:29:33;;;;;;;11.87;7.13;;;;;;;10.46;54.37;100346.56;5035994;28;20593;-66
2021/03/27 00:32:07;;;;;;;12.13;7.70;;;;;;;10.43;54.42;100347.63;5032949;28;20203;-66
2021/03/27 00:34:37;;;;;;;8.30;6.60;;;;;;;10.42;54.62;100343.25;5015934;28;20526;-66
2021/03/27 00:37:09;;;;;;;9.73;6.60;;;;;;;10.39;54.20;100333.66;5014034;28;20213;-66
2021/03/27 00:39:41;;;;;;;8.57;5.50;;;;;;;10.40;54.70;100334.50;5015434;28;20203;-66
2021/03/27 00:42:12;;;;;;;10.00;6.30;;;;;;;10.38;54.37;100334.63;5012604;28;20572;-66
2021/03/27 00:44:43;;;;;;;8.90;6.00;;;;;;;10.39;54.71;100336.31;5012443;28;20203;-66
2021/03/27 00:47:13;;;;;;;9.03;5.70;;;;;;;10.39;54.36;100330.16;5013622;28;20670;-66
2021/03/27 00:49:45;;;;;;;8.93;6.53;;;;;;;10.38;54.21;100328.47;5016503;28;20203;-66
2021/03/27 00:52:13;;;;;;;9.33;5.90;;;;;;;10.38;54.35;100324.00;5014152;28;20226;-66
2021/03/27 00:54:44;;;;;;;7.50;5.00;;;;;;;10.38;54.74;100313.34;5015540;28;20210;-66
2021/03/27 00:57:17;;;;;;;10.87;6.10;;;;;;;10.40;54.57;100322.06;5013061;28;20206;-66
2021/03/27 00:59:56;;;;;;;7.83;5.03;;;;;;;10.42;54.34;100309.50;5018580;28;20221;-66
2021/03/27 01:02:24;;;;;;;7.60;5.03;;;;;;;10.43;53.92;100318.34;5012406;28;20226;-66
2021/03/27 01:04:52;;;;;;;10.87;5.87;;;;;;;10.43;53.97;100310.34;5013870;28;20215;-66
2021/03/27 01:07:22;;;;;;;9.50;5.17;;;;;;;10.44;53.87;100296.94;5016558;28;20213;-66
2021/03/27 01:09:53;;;;;;;5.97;4.20;;;;;;;10.46;54.14;100301.31;5015963;28;20211;-66
2021/03/27 01:12:26;;;;;;;7.47;5.07;;;;;;;10.48;53.72;100294.91;5014233;28;20239;-66
2021/03/27 01:14:55;;;;;;;8.13;6.07;;;;;;;10.48;53.53;100292.25;5013676;28;20202;-66
2021/03/27 01:17:27;;;;;;;8.03;5.90;;;;;;;10.47;53.67;100284.38;5013323;28;20600;-66
2021/03/27 01:19:56;;;;;;;7.10;5.60;;;;;;;10.43;53.67;100278.41;5017853;28;21548;-66
2021/03/27 01:22:24;;;;;;;10.50;6.63;;;;;;;10.39;54.19;100279.59;5014697;28;20731;-66
2021/03/27 01:24:50;;;;;;;7.50;6.30;;;;;;;10.36;54.19;100277.13;5017027;28;20206;-66
2021/03/27 01:27:23;;;;;;;8.63;6.00;;;;;;;10.31;54.23;100274.78;5014169;28;20206;-66
2021/03/27 01:29:58;;;;;;;9.60;6.53;;;;;;;10.28;54.62;100269.66;5011435;28;20203;-65
2021/03/27 01:32:30;;;;;;;7.67;6.67;;;;;;;10.25;54.72;100261.88;5015382;28;20277;-66
2021/03/27 01:35:03;;;;;;;8.37;6.53;;;;;;;10.21;54.92;100268.34;5014082;28;20683;-66
2021/03/27 01:37:39;;;;;;;12.20;6.93;;;;;;;10.19;55.41;100264.13;5015566;28;20199;-65
2021/03/27 01:40:15;;;;;;;11.93;7.17;;;;;;;10.15;55.16;100252.78;5013031;28;20269;-66
2021/03/27 01:42:45;;;;;;;7.53;6.23;;;;;;;10.13;54.78;100254.69;5014201;28;20246;-66
2021/03/27 01:45:39;;;;;;;10.07;6.30;;;;;;;10.09;55.51;100243.41;5013467;28;20207;-66
2021/03/27 01:48:16;;;;;;;9.60;6.43;;;;;;;10.07;55.14;100247.13;5015522;28;20567;-66
2021/03/27 01:50:46;;;;;;;8.53;6.50;;;;;;;10.05;55.45;100243.72;5018004;28;20218;-66
2021/03/27 01:53:30;;;;;;;9.33;6.80;;;;;;;10.02;55.39;100238.63;5011897;28;20230;-66
2021/03/27 01:56:15;;;;;;;8.13;6.13;;;;;;;9.99;55.97;100244.16;5014893;28;20252;-66
2021/03/27 01:58:48;;;;;;;9.47;6.57;;;;;;;9.95;55.68;100230.19;5017369;28;20237;-66
2021/03/27 02:01:19;;;;;;;7.13;5.83;;;;;;;9.93;56.09;100234.75;5017168;28;20207;-66
2021/03/27 02:03:51;;;;;;;9.07;7.47;;;;;;;9.90;56.11;100231.44;5020636;28;20221;-66
2021/03/27 02:06:23;;;;;;;8.00;6.07;;;;;;;9.87;56.31;100235.16;5015842;28;20213;-66
2021/03/27 02:09:01;;;;;;;8.43;6.70;;;;;;;9.84;55.96;100230.06;5017549;28;20198;-66
2021/03/27 02:11:39;;;;;;;8.23;6.53;;;;;;;9.81;56.50;100230.28;5016104;28;20206;-65
2021/03/27 02:14:09;;;;;;;10.87;7.03;;;;;;;9.76;56.48;100221.75;5019221;28;20232;-66
2021/03/27 02:16:42;;;;;;;9.17;6.47;;;;;;;9.74;56.26;100220.97;5016781;28;20206;-66
2021/03/27 02:19:39;;;;;;;9.03;6.77;;;;;;;9.71;56.58;100214.06;5018755;28;20229;-66
2021/03/27 02:22:22;;;;;;;9.47;6.90;;;;;;;9.70;56.14;100206.19;5017163;28;20203;-66
2021/03/27 02:25:19;;;;;;;7.73;6.10;;;;;;;9.66;56.30;100200.25;5017396;28;20209;-66
2021/03/27 02:27:57;;;;;;;7.90;6.10;;;;;;;9.65;56.77;100195.03;5019196;28;20206;-66
2021/03/27 02:30:28;;;;;;;9.57;6.20;;;;;;;9.64;56.69;100183.53;5017194;28;20268;-66
2021/03/27 02:33:13;;;;;;;6.23;5.50;;;;;;;9.62;57.13;100182.78;5017353;28;20244;-66
2021/03/27 02:35:54;;;;;;;9.37;6.10;;;;;;;9.60;57.33;100168.72;5018164;28;20210;-65
2021/03/27 02:38:40;;;;;;;9.73;5.97;;;;;;;9.60;56.74;100174.06;5017383;28;20229;-66
2021/03/27 02:41:24;;;;;;;7.50;5.10;;;;;;;9.57;57.51;100163.63;5017735;28;20214;-65
2021/03/27 02:43:56;;;;;;;6.83;5.33;;;;;;;9.57;57.26;100155.63;5015167;28;20227;-66
2021/03/27 02:46:29;;;;;;;6.40;4.93;;;;;;;9.57;57.38;100154.78;5020170;28;20577;-66
2021/03/27 02:49:09;;;;;;;7.83;4.93;;;;;;;9.57;58.06;100149.47;5016594;28;20245;-65
2021/03/27 02:51:41;;;;;;;5.73;4.50;;;;;;;9.58;57.78;100157.34;5021341;28;20202;-66
2021/03/27 02:54:16;;;;;;;7.23;4.80;;;;;;;9.60;57.81;100163.41;5017754;28;20253;-66
2021/03/27 02:56:54;;;;;;;6.80;4.50;;;;;;;9.64;58.49;100174.72;5018416;28;20210;-66
2021/03/27 02:59:38;;;;;;;5.73;4.30;;;;;;;9.66;57.97;100170.13;5017121;28;20227;-66
2021/03/27 03:02:12;;;;;;;6.73;4.13;;;;;;;9.71;58.35;100184.81;5020856;28;20250;-66
2021/03/27 03:04:46;;;;;;;4.90;3.53;;;;;;;9.82;58.76;100191.22;5016473;28;20696;-66
2021/03/27 03:07:20;;;;;;;5.83;3.47;;;;;;;9.93;58.82;100194.84;5020397;28;20207;-66
2021/03/27 03:09:52;;;;;;;4.73;2.97;;;;;;;10.06;58.24;100197.53;5015687;28;20608;-66
2021/03/27 03:12:24;;;;;;;4.23;3.00;;;;;;;10.18;58.83;100190.53;5013611;28;20242;-66
2021/03/27 03:14:59;;;;;;;4.83;2.87;;;;;;;10.27;58.55;100192.56;5017268;28;20207;-66
2021/03/27 03:17:34;;;;;;;3.03;2.70;;;;;;;10.39;58.27;100216.53;5018864;28;20660;-66
2021/03/27 03:20:13;;;;;;;6.20;3.30;;;;;;;10.49;57.82;100202.59;5020038;28;20202;-66
2021/03/27 03:22:49;;;;;;;4.77;3.20;;;;;;;10.55;58.02;100212.81;5018374;28;20238;-66
2021/03/27 03:25:18;;;;;;;6.57;3.67;;;;;;;10.56;58.11;100212.72;5018941;28;20202;-66
2021/03/27 03:27:57;;;;;;;4.43;3.17;;;;;;;10.57;58.43;100219.72;5019627;28;20209;-66
2021/03/27 03:30:29;;;;;;;6.30;3.60;;;;;;;10.58;58.61;100239.19;5015955;28;20650;-66
2021/03/27 03:33:18;;;;;;;4.67;3.67;;;;;;;10.57;59.03;100246.34;5016137;28;20223;-66
2021/03/27 03:35:48;;;;;;;3.67;2.93;;;;;;;10.58;59.36;100263.16;5022140;28;20213;-66
2021/03/27 03:38:28;;;;;;;4.93;3.80;;;;;;;10.55;60.45;100260.75;5016126;28;20227;-66
2021/03/27 03:41:12;;;;;;;7.40;4.13;;;;;;;10.49;61.34;100266.47;5017695;28;20209;-66
2021/03/27 03:43:48;;;;;;;4.93;4.40;;;;;;;10.42;61.39;100264.22;5016908;28;20653;-66
2021/03/27 03:46:26;;;;;;;5.87;4.87;;;;;;;10.37;62.53;100277.03;5014211;28;20212;-66
2021/03/27 03:49:13;;;;;;;4.90;4.13;;;;;;;10.30;62.74;100285.53;5016952;28;20203;-66
2021/03/27 03:51:56;;;;;;;4.47;3.60;;;;;;;10.20;62.80;100295.09;5015925;28;20203;-67
2021/03/27 03:54:29;;;;;;;4.20;3.47;;;;;;;10.06;62.92;100296.81;5021989;28;20218;-66
2021/03/27 03:57:04;;;;;;;3.57;3.27;;;;;;;9.97;63.05;100299.25;5016362;28;20223;-67
2021/03/27 03:59:37;;;;;;;4.13;3.73;;;;;;;9.88;63.83;100318.47;5017328;28;20233;-66
2021/03/27 04:02:09;;;;;;;4.50;3.73;;;;;;;9.79;64.18;100322.59;5018945;28;20842;-66
2021/03/27 04:04:42;;;;;;;2.97;2.67;;;;;;;9.72;64.00;100355.84;5016178;28;20203;-66
2021/03/27 04:07:13;;;;;;;2.57;1.47;;;;;;;9.59;64.09;100346.97;5017954;28;20211;-66
2021/03/27 04:09:46;;;;;;;1.50;1.10;;;;;;;9.38;63.77;100350.03;5017373;28;20576;-66
2021/03/27 04:12:20;;;;;;;1.20;1.03;;;;;;;9.19;63.70;100377.84;5018204;28;20257;-66
2021/03/27 04:14:52;;;;;;;1.10;1.00;;;;;;;9.01;63.71;100387.81;5013627;28;20210;-67
2021/03/27 04:17:23;;;;;;;1.70;1.07;;;;;;;8.85;64.16;100405.63;5017311;28;20248;-67
2021/03/27 04:19:56;;;;;;;1.00;0.90;;;;;;;8.71;64.93;100414.41;5017480;28;20700;-68
2021/03/27 04:22:28;;;;;;;2.10;1.40;;;;;;;8.56;65.71;100431.25;5016751;28;20222;-68
2021/03/27 04:25:23;;;;;;;0.67;0.67;;;;;;;8.40;65.11;100441.03;5016068;28;20207;-68
2021/03/27 04:27:55;;;;;;;1.07;0.87;;;;;;;8.24;66.13;100465.75;5009620;28;20286;-68
2021/03/27 04:30:31;;;;;;;0.80;0.80;;;;;;;8.12;66.32;100447.00;5015454;28;20624;-68
2021/03/27 04:33:07;;;;;;;1.13;0.73;;;;;;;7.98;67.07;100459.25;5015643;28;20230;-68
2021/03/27 04:35:57;;;;;;;0.67;0.63;;;;;;;7.84;66.77;100453.88;5017864;28;20206;-68
2021/03/27 04:38:37;;;;;;;0.60;0.60;;;;;;;7.73;67.43;100476.59;5010289;28;20230;-68
2021/03/27 04:41:17;;;;;;;2.23;0.90;;;;;;;7.62;68.08;100480.69;5016788;28;20218;-68
2021/03/27 04:43:48;;;;;;;0.60;0.50;;;;;;;7.51;68.43;100479.56;5013805;28;20241;-68
2021/03/27 04:46:20;;;;;;;1.53;0.90;;;;;;;7.41;68.73;100479.19;5016142;28;20577;-68
2021/03/27 04:48:54;;;;;;;1.50;0.50;;;;;;;7.30;68.97;100486.84;5017383;28;20668;-68
2021/03/27 04:51:36;;;;;;;1.73;1.23;;;;;;;7.20;69.34;100478.50;5017301;28;20202;-68
2021/03/27 04:54:09;;;;;;;1.03;0.70;;;;;;;7.13;69.44;100481.56;5015795;28;20634;-68
2021/03/27 04:56:45;;;;;;;1.13;0.90;;;;;;;7.07;69.69;100479.22;5013402;28;20257;-68
2021/03/27 04:59:18;;;;;;;1.60;1.27;;;;;;;7.03;70.00;100483.81;5012774;28;20589;-68
2021/03/27 05:01:52;;;;;;;1.00;0.80;;;;;;;6.96;70.24;100480.66;5021089;28;20202;-68
2021/03/27 05:04:24;;;;;;;1.20;1.03;;;;;;;6.94;70.61;100481.66;5014321;28;20226;-68
2021/03/27 05:07:06;;;;;;;1.30;1.20;;;;;;;6.90;71.22;100480.97;5017936;28;20203;-68
2021/03/27 05:09:38;;;;;;;2.03;1.27;;;;;;;6.89;71.44;100495.13;5013362;28;20575;-67
2021/03/27 05:12:13;;;;;;;1.27;1.13;;;;;;;6.87;71.52;100502.28;5021766;28;20221;-68
2021/03/27 05:14:47;;;;;;;1.20;1.10;;;;;;;6.87;71.56;100502.28;5018180;28;20229;-68
2021/03/27 05:17:20;;;;;;;1.20;1.10;;;;;;;6.87;72.19;100498.78;5018958;28;20201;-68
2021/03/27 05:19:52;;;;;;;2.93;2.17;;;;;;;6.88;72.35;100509.28;5022390;28;20341;-67
2021/03/27 05:22:38;;;;;;;2.17;1.70;;;;;;;6.85;72.10;100514.75;5023342;28;20218;-67
2021/03/27 05:25:15;;;;;;;1.90;1.70;;;;;;;6.82;72.37;100517.53;5021965;28;20206;-68
2021/03/27 05:27:47;;;;;;;1.60;1.40;;;;;;;6.80;72.31;100526.50;5029140;28;20260;-67
2021/03/27 05:30:24;;;;;;;1.87;1.50;;;;;;;6.76;72.55;100525.81;5024877;28;20212;-68
2021/03/27 05:33:36;;;;;;;2.10;1.73;;;;;;;6.73;72.77;100527.72;5022110;28;20226;-68
2021/03/27 05:36:22;;;;;;;2.20;1.80;;;;;;;6.69;72.92;100545.53;4966611;28;20753;-67
2021/03/27 05:38:54;;;;;;;2.07;1.83;;;;;;;6.68;72.83;100557.06;5025232;28;20226;-67
2021/03/27 05:41:48;;;;;;;2.43;2.17;;;;;;;6.66;72.80;100553.63;5028594;28;20202;-67
2021/03/27 05:44:47;;;;;;;3.00;2.40;;;;;;;6.65;72.83;100549.28;5028515;28;20272;-67
2021/03/27 05:48:01;;;;;;;3.07;2.77;;;;;;;6.65;73.47;100564.28;4991631;28;20260;-67
2021/03/27 05:50:59;;;;;;;3.03;2.60;;;;;;;6.63;73.25;100567.00;5021163;28;20207;-69
2021/03/27 05:53:49;;;;;;;2.37;2.07;;;;;;;6.60;72.87;100581.28;5020698;28;20226;-68
2021/03/27 05:56:57;;;;;;;2.20;1.87;;;;;;;6.59;73.17;100581.34;5029601;28;20206;-68
2021/03/27 05:59:36;;;;;;;2.63;2.30;;;;;;;6.58;73.03;100595.50;5007862;28;20233;-66
2021/03/27 06:02:16;;;;;;;3.20;2.40;;;;;;;6.59;73.57;100592.78;5019910;28;20206;-66
2021/03/27 06:05:22;;;;;;;2.70;2.33;;;;;;;6.59;73.51;100584.84;5025239;28;20277;-66
2021/03/27 06:08:06;;;;;;;4.07;2.90;;;;;;;6.60;73.65;100598.94;5023398;28;20202;-66
2021/03/27 06:10:54;;;;;;;3.53;2.73;;;;;;;6.60;73.49;100599.78;5024979;28;20211;-66
2021/03/27 06:13:47;;;;;;;4.27;3.30;;;;;;;6.61;73.29;100621.81;5024720;28;20234;-66
2021/03/27 06:16:23;;;;;;;4.93;3.60;;;;;;;6.59;73.84;100615.75;5010334;28;20222;-66
2021/03/27 06:19:06;;;;;;;4.90;3.80;;;;;;;6.58;73.41;100621.97;5013491;28;20229;-66
2021/03/27 06:21:42;;;;;;;4.93;3.77;;;;;;;6.58;73.56;100629.91;5017689;28;20207;-64
2021/03/27 06:24:33;;;;;;;6.93;4.27;;;;;;;6.60;73.80;100625.41;5040604;22;20237;-66
2021/03/27 06:27:10;;;;;;;7.50;4.60;;;;;;;6.57;73.49;100638.75;5017762;28;20205;-66
2021/03/27 06:30:15;;;;;;;7.70;5.80;;;;;;;6.55;73.10;100635.34;5021810;28;20198;-65
2021/03/27 06:33:15;;;;;;;6.17;4.93;;;;;;;6.54;73.02;100638.91;5013016;28;20207;-65
2021/03/27 06:36:01;;;;;;;6.87;5.77;;;;;;;6.54;72.94;100641.56;5005621;28;20219;-66
2021/03/27 06:39:05;;;;;;;7.07;6.33;;;;;;;6.54;72.84;100653.00;5006217;28;20246;-66
2021/03/27 06:41:49;;;;;;;7.30;5.23;;;;;;;6.57;72.46;100657.28;5007591;28;20261;-65
2021/03/27 06:44:41;;;;;;;10.23;7.23;;;;;;;6.56;72.48;100661.72;5004047;28;20227;-65
2021/03/27 06:47:51;;;;;;;11.00;7.47;;;;;;;6.56;72.53;100667.00;5012348;28;20210;-65
2021/03/27 06:50:52;;;;;;;10.07;8.23;;;;;;;6.57;72.27;100679.31;4969754;28;20290;-65
2021/03/27 06:53:34;;;;;;;10.33;8.37;;;;;;;6.58;72.32;100688.13;4981941;28;20234;-66
2021/03/27 06:56:31;;;;;;;10.43;8.73;;;;;;;6.57;72.23;100700.47;5009622;28;20239;-66
2021/03/27 06:59:11;;;;;;;10.37;7.80;;;;;;;6.57;72.12;100711.06;5010605;28;20727;-67
2021/03/27 07:02:01;;;;;;;8.30;7.33;;;;;;;6.55;72.32;100718.22;5010931;28;20209;-66
2021/03/27 07:04:45;;;;;;;5.97;4.87;;;;;;;6.52;72.23;100722.78;5010161;28;20285;-65
2021/03/27 07:07:34;;;;;;;6.53;2.77;;;;;;;6.44;71.96;100731.09;5009818;28;20210;-66
2021/03/27 07:10:37;;;;;;;4.60;2.20;;;;;;;6.36;71.78;100732.34;5010323;28;20198;-66
2021/03/27 07:13:22;;;;;;;7.83;2.67;;;;;;;6.23;71.61;100729.38;5011141;28;20226;-66
2021/03/27 07:15:58;;;;;;;6.60;2.17;;;;;;;6.15;71.32;100723.56;5010456;28;20248;-65
2021/03/27 07:18:59;;;;;;;3.40;1.93;;;;;;;6.08;71.75;100723.00;5012335;28;20769;-66
2021/03/27 07:21:49;;;;;;;4.63;2.27;;;;;;;6.05;71.37;100731.06;4978602;28;20214;-67
2021/03/27 07:24:46;;;;;;;2.17;1.50;;;;;;;6.03;71.33;100722.31;5010001;28;20321;-66
2021/03/27 07:28:01;;;;;;;3.10;1.77;;;;;;;6.00;71.21;100733.03;5009530;28;20668;-65
2021/03/27 07:30:34;;;;;;;3.23;1.63;;;;;;;6.03;71.17;100721.47;5005942;28;20207;-65
2021/03/27 07:33:26;;;;;;;5.30;2.23;;;;;;;6.04;70.96;100728.47;5008673;28;20226;-65
2021/03/27 07:36:31;;;;;;;5.07;1.70;;;;;;;6.03;70.82;100722.31;5008799;28;20222;-66
2021/03/27 07:39:13;;;;;;;3.87;2.07;;;;;;;6.07;70.65;100723.91;4974644;28;20675;-66
2021/03/27 07:41:56;;;;;;;2.97;1.80;;;;;;;6.20;70.71;100716.28;5011727;28;20199;-66
2021/03/27 07:44:40;;;;;;;7.13;3.50;;;;;;;6.36;70.60;100719.13;5009439;28;20219;-66
2021/03/27 07:47:18;;;;;;;5.23;3.83;;;;;;;6.54;70.74;100719.13;5008418;28;20202;-66
2021/03/27 07:50:25;;;;;;;8.00;4.13;;;;;;;6.77;71.26;100723.38;5007841;28;20199;-66
2021/03/27 07:53:04;;;;;;;10.30;5.60;;;;;;;7.00;70.56;100724.94;5006467;28;20235;-66
2021/03/27 07:56:10;;;;;;;10.97;5.83;;;;;;;7.21;69.92;100723.91;5008105;28;20202;-67
2021/03/27 07:58:56;;;;;;;12.43;7.10;;;;;;;7.39;69.92;100732.75;5009394;28;20296;-66
2021/03/27 08:01:50;;;;;;;10.77;8.07;;;;;;;7.55;68.99;100722.25;5009247;28;20253;-66
2021/03/27 08:04:54;;;;;;;11.07;7.63;;;;;;;7.71;68.23;100733.81;5000019;28;20230;-68
2021/03/27 08:07:40;;;;;;;9.57;7.53;;;;;;;7.86;67.97;100727.75;5008657;28;20230;-67
2021/03/27 08:10:26;;;;;;;11.13;5.90;;;;;;;8.04;66.89;100731.25;5004397;28;20203;-65
2021/03/27 08:13:25;;;;;;;12.30;7.57;;;;;;;8.18;66.25;100744.66;5007110;28;20222;-65
2021/03/27 08:16:23;;;;;;;9.87;6.27;;;;;;;8.31;65.36;100748.38;5004534;28;20203;-65
2021/03/27 08:19:21;;;;;;;8.33;6.47;;;;;;;8.43;65.66;100751.34;5007995;28;20219;-66
2021/03/27 08:22:05;;;;;;;10.07;7.30;;;;;;;8.50;64.95;100744.78;5009457;28;20302;-68
2021/03/27 08:24:47;;;;;;;9.27;6.83;;;;;;;8.54;64.78;100760.47;5004031;28;20687;-65
2021/03/27 08:27:51;;;;;;;11.77;7.77;;;;;;;8.54;63.64;100763.13;5008419;28;20206;-66
2021/03/27 08:30:51;;;;;;;9.00;7.03;;;;;;;8.64;63.34;100763.50;5005075;28;20207;-65
2021/03/27 08:33:40;;;;;;;11.40;6.93;;;;;;;8.75;63.44;100761.13;5005562;28;20227;-65
2021/03/27 08:36:39;;;;;;;16.03;13.30;;;;;;;8.84;62.86;100762.41;5006598;28;20214;-65
2021/03/27 08:39:49;;;;;;;7.83;6.40;;;;;;;8.97;62.62;100766.97;4997556;28;20238;-66
2021/03/27 08:42:42;;;;;;;9.30;5.93;;;;;;;9.14;62.25;100762.53;5009280;28;20594;-68
2021/03/27 08:45:19;;;;;;;9.63;6.17;;;;;;;9.31;61.24;100765.13;5009580;28;20210;-65
2021/03/27 08:47:55;;;;;;;8.57;5.53;;;;;;;9.37;60.81;100762.97;5011088;28;20699;-66
2021/03/27 08:50:57;;;;;;;10.87;5.47;;;;;;;9.35;59.83;100783.44;5007471;28;20207;-68
2021/03/27 08:53:54;;;;;;;6.73;4.27;;;;;;;9.36;59.91;100777.19;5009278;28;20233;-68
2021/03/27 08:57:11;;;;;;;5.50;3.60;;;;;;;9.35;60.02;100782.59;5005410;28;20210;-65
2021/03/27 09:00:16;;;;;;;7.10;3.27;;;;;;;9.32;59.21;100790.72;5005343;28;20223;-67
2021/03/27 09:02:57;;;;;;;8.10;3.57;;;;;;;9.26;59.49;100791.94;4977200;28;20301;-67
2021/03/27 09:05:37;;;;;;;7.53;4.40;;;;;;;9.21;59.33;100811.75;5006930;28;20206;-67
2021/03/27 09:08:18;;;;;;;5.03;3.50;;;;;;;9.15;59.06;100812.06;5003750;28;20264;-65
2021/03/27 09:11:00;;;;;;;6.67;3.07;;;;;;;9.06;58.29;100808.13;5003425;28;20624;-65
2021/03/27 09:14:10;;;;;;;7.73;2.97;;;;;;;8.97;58.46;100816.59;5001201;28;20241;-65
2021/03/27 09:17:14;;;;;;;7.50;2.93;;;;;;;8.89;58.29;100827.63;4974452;28;20211;-62
2021/03/27 09:20:03;;;;;;;4.37;2.70;;;;;;;8.82;59.01;100831.56;5002128;28;20230;-67
2021/03/27 09:23:01;;;;;;;3.33;2.03;;;;;;;8.72;58.76;100840.09;5006322;28;20199;-68
2021/03/27 09:25:50;;;;;;;2.27;1.80;;;;;;;8.60;59.17;100841.56;5000946;28;20305;-63
2021/03/27 09:28:39;;;;;;;2.43;1.70;;;;;;;8.44;60.41;100833.53;5000004;28;20812;-64
2021/03/27 09:31:31;;;;;;;2.60;1.60;;;;;;;8.34;60.14;100840.28;5008517;28;20260;-65
2021/03/27 09:34:05;;;;;;;3.77;1.90;;;;;;;8.26;60.55;100839.75;5008408;28;20219;-65
2021/03/27 09:36:41;;;;;;;4.13;2.03;;;;;;;8.23;61.17;100850.56;5006838;28;20203;-65
2021/03/27 09:39:19;;;;;;;6.00;2.53;;;;;;;8.17;61.33;100857.03;5001119;28;20231;-68
2021/03/27 09:42:12;;;;;;;4.87;2.30;;;;;;;8.10;61.47;100852.94;5009508;28;20708;-66
2021/03/27 09:44:53;;;;;;;2.80;2.30;;;;;;;8.09;61.55;100867.16;5000608;28;20257;-68
2021/03/27 09:47:35;;;;;;;6.27;2.63;;;;;;;8.07;62.02;100869.00;5003311;28;20579;-66
2021/03/27 09:50:17;;;;;;;6.03;2.50;;;;;;;8.08;61.91;100873.38;5007946;28;20207;-71
2021/03/27 09:53:01;;;;;;;4.20;2.90;;;;;;;8.18;61.95;100887.94;5017424;28;20210;-71
2021/03/27 09:55:51;;;;;;;5.53;2.90;;;;;;;8.30;61.90;100887.31;5006464;28;20253;-71
2021/03/27 09:58:26;;;;;;;7.23;2.67;;;;;;;8.38;61.60;100879.00;5002398;28;20206;-69
2021/03/27 10:01:04;;;;;;;6.00;2.80;;;;;;;8.41;61.61;100978.84;5006890;28;20214;-70
2021/03/27 10:03:43;;;;;;;2.57;0.70;;;;;;;8.20;60.70;100986.88;5007377;28;20831;-73
2021/03/27 10:06:42;;;;;;;2.83;0.57;;;;;;;7.77;60.79;100998.63;5008900;28;20217;-73
2021/03/27 10:09:44;;;;;;;0.93;0.50;;;;;;;7.37;61.86;101010.19;5008235;28;20199;-73
2021/03/27 10:12:15;;;;;;;1.67;0.50;;;;;;;7.03;62.47;101017.88;5007108;28;20215;-73
2021/03/27 10:14:49;;;;;;;1.10;0.67;;;;;;;6.77;63.72;101032.22;5009670;28;20284;-73
2021/03/27 10:17:24;;;;;;;1.73;0.50;;;;;;;6.54;64.64;101033.16;5007757;28;20217;-72
2021/03/27 10:19:56;;;;;;;1.37;0.70;;;;;;;6.33;65.05;101048.09;5007462;28;20233;-73
2021/03/27 10:22:41;;;;;;;3.07;0.80;;;;;;;6.14;66.26;101049.75;5010388;28;20210;-72
2021/03/27 10:25:18;;;;;;;1.30;1.10;;;;;;;6.01;66.57;101046.72;5012602;28;20544;-72
2021/03/27 10:27:52;;;;;;;1.70;1.00;;;;;;;5.88;67.26;101027.84;5013294;28;20202;-72
2021/03/27 10:30:24;;;;;;;2.47;1.20;;;;;;;5.83;67.68;100997.16;5013213;28;20199;-72
2021/03/27 10:33:13;;;;;;;2.20;1.10;;;;;;;5.84;68.32;100988.31;5011033;28;20227;-71
2021/03/27 10:36:08;;;;;;;1.87;0.97;;;;;;;5.86;68.94;101010.25;5010970;28;20227;-69
2021/03/27 10:39:20;;;;;;;1.43;0.50;;;;;;;5.83;68.93;101024.47;5004747;28;20235;-68
2021/03/27 10:42:22;;;;;;;1.33;0.47;;;;;;;5.82;69.19;101016.59;4957489;28;20211;-69
2021/03/27 10:45:03;;;;;;;0.80;0.60;;;;;;;5.79;69.39;101030.78;5006117;28;20603;-69
2021/03/27 10:47:35;;;;;;;4.07;0.90;;;;;;;5.83;69.87;101028.88;5007759;28;20211;-68
2021/03/27 10:50:09;;;;;;;0.87;0.57;;;;;;;5.87;69.85;101020.78;5010483;28;20356;-69
2021/03/27 10:52:51;;;;;;;1.20;0.70;;;;;;;5.92;70.61;101024.13;5011028;28;20213;-68
2021/03/27 10:55:35;;;;;;;1.70;0.77;;;;;;;5.93;70.41;101022.34;5008783;28;20214;-68
2021/03/27 10:58:34;;;;;;;1.33;0.60;;;;;;;5.97;70.65;101029.25;5011115;28;20203;-68
2021/03/27 11:01:17;;;;;;;1.77;0.80;;;;;;;6.02;70.58;101035.22;5010007;28;20600;-69
2021/03/27 11:04:37;;;;;;;1.87;0.70;;;;;;;6.10;71.11;101046.34;5010771;28;20234;-68
2021/03/27 11:07:48;;;;;;;2.07;0.87;;;;;;;6.23;71.31;101039.69;5004505;28;20219;-68
2021/03/27 11:11:00;;;;;;;3.27;1.20;;;;;;;6.36;71.41;101036.53;5009843;28;20687;-68
2021/03/27 11:14:07;;;;;;;1.63;0.70;;;;;;;6.42;71.15;101037.19;5015708;28;20238;-67
2021/03/27 11:16:58;;;;;;;1.63;0.87;;;;;;;6.49;71.09;101040.41;5012748;28;20202;-68
2021/03/27 11:19:39;;;;;;;3.90;0.80;;;;;;;6.55;70.75;101058.72;5009075;28;20222;-68
2021/03/27 11:22:28;;;;;;;3.23;1.20;;;;;;;6.55;70.51;101058.72;5005338;28;20214;-68
2021/03/27 11:25:26;;;;;;;1.80;1.00;;;;;;;6.57;70.22;101060.38;5007909;28;20215;-67
2021/03/27 11:28:02;;;;;;;3.20;1.27;;;;;;;6.60;70.10;101062.91;4967899;28;20218;-67
2021/03/27 11:30:38;;;;;;;2.90;1.03;;;;;;;6.67;69.92;101075.88;5010380;28;20226;-68
2021/03/27 11:33:20;;;;;;;4.30;1.53;;;;;;;6.71;70.15;101083.63;5006002;28;20218;-68
2021/03/27 11:35:55;;;;;;;2.47;1.70;;;;;;;6.80;69.75;101090.34;5006036;28;20218;-67
2021/03/27 11:38:29;;;;;;;6.03;1.70;;;;;;;6.85;69.77;101088.34;5011828;28;20198;-65
2021/03/27 11:41:02;;;;;;;4.60;2.10;;;;;;;6.93;69.78;101087.13;5009906;28;20665;-67
2021/03/27 11:44:11;;;;;;;6.53;3.03;;;;;;;7.05;69.75;101093.69;5007645;28;20233;-67
2021/03/27 11:46:40;;;;;;;3.73;2.17;;;;;;;7.14;69.20;101092.47;5011592;28;20203;-67
2021/03/27 11:49:19;;;;;;;4.63;1.87;;;;;;;7.22;68.80;101106.22;5004787;28;20210;-66
2021/03/27 11:51:48;;;;;;;4.70;1.97;;;;;;;7.23;67.85;101108.81;5008977;28;20203;-67
2021/03/27 11:54:28;;;;;;;5.53;2.10;;;;;;;7.26;67.34;101092.78;5006352;28;20596;-68
2021/03/27 11:57:20;;;;;;;2.23;1.43;;;;;;;7.28;67.24;101111.28;5007908;28;20218;-66
2021/03/27 12:02:54;;;;;;;6.73;3.03;;;;;;;7.37;65.47;101110.88;4977707;28;20214;-67
2021/03/27 12:05:37;;;;;;;4.37;1.90;;;;;;;7.45;65.11;101111.41;5009626;28;20203;-67
2021/03/27 12:08:19;;;;;;;7.53;2.60;;;;;;;7.57;64.88;101113.53;5009873;28;20215;-66
2021/03/27 12:10:55;;;;;;;5.17;2.40;;;;;;;7.68;64.75;101107.78;5010298;28;20207;-66
2021/03/27 12:13:29;;;;;;;3.97;2.33;;;;;;;7.77;63.96;101111.78;5010718;28;20230;-67
2021/03/27 12:16:07;;;;;;;5.73;2.30;;;;;;;7.80;63.06;101106.34;5007733;28;20211;-67
2021/03/27 12:19:03;;;;;;;5.83;2.73;;;;;;;7.84;63.12;101108.81;5007479;28;20226;-66
2021/03/27 12:21:32;;;;;;;5.30;2.40;;;;;;;7.92;62.58;101108.44;5008678;28;20554;-66
2021/03/27 12:24:04;;;;;;;6.33;2.73;;;;;;;8.01;62.23;101106.25;5050940;22;20233;-62
2021/03/27 12:26:40;;;;;;;6.80;2.60;;;;;;;8.05;61.82;101101.69;5031201;28;20214;-61
2021/03/27 12:29:12;;;;;;;3.93;2.43;;;;;;;8.13;61.59;101117.22;5033662;28;20202;-62
2021/03/27 12:32:15;;;;;;;4.43;2.67;;;;;;;8.16;61.01;101112.66;5035384;28;20728;-62
2021/03/27 12:34:51;;;;;;;5.00;2.50;;;;;;;8.25;61.47;101122.81;5020324;28;20225;-63
2021/03/27 12:37:26;;;;;;;7.43;2.93;;;;;;;8.30;60.53;101120.81;5013477;28;20630;-61
2021/03/27 12:39:57;;;;;;;5.33;2.80;;;;;;;8.31;59.85;101133.16;5012198;28;20638;-61
2021/03/27 12:42:27;;;;;;;6.30;3.30;;;;;;;8.30;60.12;101142.06;5013357;28;20259;-62
2021/03/27 12:44:56;;;;;;;5.67;3.80;;;;;;;8.27;59.61;101144.84;5014432;28;20305;-62
2021/03/27 12:47:43;;;;;;;5.87;3.40;;;;;;;8.26;60.32;101159.03;5014908;28;20671;-63